createdAt,value
2023-07-21T00:00:24.621Z,4.22
2023-07-21T00:02:53.383Z,3.95
2023-07-21T00:05:20.332Z,3.33
2023-07-21T00:07:49.564Z,3.35
2023-07-21T00:10:16.749Z,4.25
2023-07-21T00:12:48.781Z,3.80
2023-07-21T00:15:18.937Z,3.83
2023-07-21T00:17:51.410Z,3.30
2023-07-21T00:20:23.687Z,3.67
2023-07-21T00:22:50.862Z,3.35
2023-07-21T00:25:18.077Z,3.78
2023-07-21T00:27:45.664Z,3.33
2023-07-21T00:30:13.046Z,3.92
2023-07-21T00:32:40.984Z,3.72
2023-07-21T00:35:10.150Z,4.20
2023-07-21T00:37:38.611Z,3.10
2023-07-21T00:40:11.549Z,3.33
2023-07-21T00:42:38.907Z,2.95
2023-07-21T00:45:06.359Z,4.53
2023-07-21T00:47:35.596Z,3.90
2023-07-21T00:50:02.984Z,3.53
2023-07-21T00:52:29.923Z,4.05
2023-07-21T00:54:56.864Z,3.60
2023-07-21T00:57:24.831Z,3.55
2023-07-21T00:59:52.304Z,4.53
2023-07-21T01:02:19.693Z,4.30
2023-07-21T01:04:47.758Z,4.07
2023-07-21T01:07:15.997Z,3.67
2023-07-21T01:09:44.668Z,3.40
2023-07-21T01:12:12.609Z,3.20
2023-07-21T01:14:39.490Z,4.53
2023-07-21T01:17:09.491Z,3.65
2023-07-21T01:19:39.023Z,3.97
2023-07-21T01:22:26.217Z,4.40
2023-07-21T01:24:55.960Z,4.30
2023-07-21T01:27:25.618Z,4.50
2023-07-21T01:29:54.075Z,5.25
2023-07-21T01:32:23.351Z,3.72
2023-07-21T01:34:51.693Z,3.78
2023-07-21T01:37:19.856Z,3.15
2023-07-21T01:39:49.199Z,3.85
2023-07-21T01:42:16.334Z,4.20
2023-07-21T01:44:44.742Z,3.72
2023-07-21T01:47:11.609Z,3.70
2023-07-21T01:49:38.533Z,3.80
2023-07-21T01:52:05.755Z,4.10
2023-07-21T01:54:47.209Z,4.43
2023-07-21T01:57:21.734Z,4.15
2023-07-21T01:59:50.957Z,4.15
2023-07-21T02:02:20.257Z,3.20
2023-07-21T02:04:54.530Z,4.32
2023-07-21T02:07:22.031Z,3.78
2023-07-21T02:09:53.891Z,4.05
2023-07-21T02:12:22.628Z,3.67
2023-07-21T02:14:59.549Z,4.38
2023-07-21T02:17:26.532Z,3.60
2023-07-21T02:19:53.400Z,4.07
2023-07-21T02:22:21.094Z,4.38
2023-07-21T02:24:47.966Z,4.30
2023-07-21T02:27:14.912Z,6.35
2023-07-21T02:29:41.773Z,4.13
2023-07-21T02:32:11.769Z,5.20
2023-07-21T02:34:40.457Z,5.05
2023-07-21T02:37:07.286Z,4.30
2023-07-21T02:39:34.461Z,4.30
2023-07-21T02:42:01.278Z,5.25
2023-07-21T02:44:29.133Z,4.57
2023-07-21T02:46:56.282Z,4.13
2023-07-21T02:49:23.158Z,4.00
2023-07-21T02:51:50.160Z,4.10
2023-07-21T02:54:18.586Z,4.88
2023-07-21T02:56:45.905Z,10.60
2023-07-21T02:59:19.718Z,3.90
2023-07-21T03:01:56.438Z,4.40
2023-07-21T03:04:33.188Z,4.00
2023-07-21T03:07:02.956Z,4.65
2023-07-21T03:09:30.779Z,4.78
2023-07-21T03:11:58.533Z,4.10
2023-07-21T03:14:50.294Z,5.97
2023-07-21T03:17:19.102Z,5.53
2023-07-21T03:19:46.025Z,4.30
2023-07-21T03:22:17.475Z,4.03
2023-07-21T03:24:47.169Z,5.07
2023-07-21T03:27:15.116Z,3.92
2023-07-21T03:29:43.136Z,3.58
2023-07-21T03:32:12.626Z,4.35
2023-07-21T03:34:39.510Z,3.92
2023-07-21T03:37:09.868Z,4.68
2023-07-21T03:39:37.936Z,4.20
2023-07-21T03:42:05.733Z,5.28
2023-07-21T03:44:32.540Z,5.38
2023-07-21T03:46:59.418Z,4.90
2023-07-21T03:49:36.494Z,4.95
2023-07-21T03:52:09.974Z,4.43
2023-07-21T03:54:37.895Z,4.50
2023-07-21T03:57:05.041Z,4.32
2023-07-21T03:59:32.167Z,4.82
2023-07-21T04:01:59.023Z,4.70
2023-07-21T04:04:26.067Z,4.60
2023-07-21T04:06:53.004Z,4.20
2023-07-21T04:09:19.870Z,4.50
2023-07-21T04:11:46.676Z,5.38
2023-07-21T04:14:13.556Z,5.88
2023-07-21T04:16:40.441Z,4.35
2023-07-21T04:19:07.395Z,6.03
2023-07-21T04:21:34.258Z,4.63
2023-07-21T04:24:01.297Z,4.82
2023-07-21T04:26:28.178Z,4.63
2023-07-21T04:28:55.195Z,4.72
2023-07-21T04:31:23.722Z,4.82
2023-07-21T04:34:01.181Z,4.95
2023-07-21T04:36:28.777Z,4.97
2023-07-21T04:38:59.095Z,4.32
2023-07-21T04:41:26.726Z,4.72
2023-07-21T04:43:53.831Z,5.57
2023-07-21T04:46:20.788Z,5.07
2023-07-21T04:48:49.233Z,5.82
2023-07-21T04:51:25.778Z,5.75
2023-07-21T04:53:52.867Z,6.20
2023-07-21T04:56:22.870Z,5.13
2023-07-21T04:58:54.601Z,5.55
2023-07-21T05:01:21.536Z,4.55
2023-07-21T05:03:48.391Z,6.25
2023-07-21T05:06:17.759Z,7.80
2023-07-21T05:08:48.401Z,6.22
2023-07-21T05:11:16.905Z,5.82
2023-07-21T05:13:46.449Z,6.22
2023-07-21T05:16:23.726Z,5.50
2023-07-21T05:19:05.408Z,5.75
2023-07-21T05:21:57.238Z,6.00
2023-07-21T05:24:59.424Z,5.20
2023-07-21T05:27:26.628Z,5.70
2023-07-21T05:29:55.794Z,5.35
2023-07-21T05:32:24.365Z,6.60
2023-07-21T05:35:09.920Z,4.95
2023-07-21T05:37:39.150Z,5.43
2023-07-21T05:40:07.577Z,6.47
2023-07-21T05:42:35.235Z,5.32
2023-07-21T05:45:03.867Z,6.80
2023-07-21T05:47:32.262Z,4.88
2023-07-21T05:50:02.235Z,5.88
2023-07-21T05:52:31.858Z,6.93
2023-07-21T05:54:58.710Z,5.75
2023-07-21T05:57:29.848Z,5.43
2023-07-21T05:59:57.939Z,5.57
2023-07-21T06:02:24.934Z,4.90
2023-07-21T06:04:57.804Z,5.32
2023-07-21T06:07:45.898Z,5.68
2023-07-21T06:10:33.072Z,6.63
2023-07-21T06:13:13.786Z,5.72
2023-07-21T06:15:50.739Z,5.68
2023-07-21T06:18:22.265Z,5.38
2023-07-21T06:20:52.415Z,6.10
2023-07-21T06:23:19.955Z,5.95
2023-07-21T06:25:48.217Z,5.80
2023-07-21T06:28:17.627Z,5.47
2023-07-21T06:30:44.666Z,5.68
2023-07-21T06:33:21.363Z,6.45
2023-07-21T06:35:55.439Z,5.90
2023-07-21T06:38:54.682Z,5.82
2023-07-21T06:41:52.790Z,5.50
2023-07-21T06:44:37.972Z,7.30
2023-07-21T06:47:22.378Z,5.32
2023-07-21T06:50:12.232Z,5.53
2023-07-21T06:52:41.046Z,5.25
2023-07-21T06:55:08.483Z,4.72
2023-07-21T06:57:35.524Z,5.60
2023-07-21T07:00:02.452Z,5.18
2023-07-21T07:02:29.524Z,5.53
2023-07-21T07:04:56.688Z,6.93
2023-07-21T07:07:23.551Z,5.93
2023-07-21T07:09:50.385Z,5.45
2023-07-21T07:12:21.409Z,4.65
2023-07-21T07:14:48.291Z,5.28
2023-07-21T07:17:15.169Z,5.05
2023-07-21T07:19:42.298Z,5.55
2023-07-21T07:22:10.846Z,5.13
2023-07-21T07:24:40.743Z,4.80
2023-07-21T07:27:07.818Z,4.38
2023-07-21T07:29:36.237Z,4.18
2023-07-21T07:32:03.548Z,3.95
2023-07-21T07:34:30.425Z,4.95
2023-07-21T07:36:59.561Z,4.40
2023-07-21T07:39:26.516Z,5.75
2023-07-21T07:41:53.446Z,3.97
2023-07-21T07:44:20.611Z,4.75
2023-07-21T07:46:47.578Z,3.30
2023-07-21T07:49:14.484Z,3.78
2023-07-21T07:51:41.353Z,5.47
2023-07-21T07:54:08.957Z,4.78
2023-07-21T07:56:35.854Z,4.22
2023-07-21T07:59:02.669Z,3.92
2023-07-21T08:01:29.853Z,4.95
2023-07-21T08:03:57.251Z,4.53
2023-07-21T08:06:24.213Z,3.75
2023-07-21T08:08:51.094Z,4.38
2023-07-21T08:11:17.981Z,3.42
2023-07-21T08:13:45.906Z,5.65
2023-07-21T08:16:14.366Z,3.15
2023-07-21T08:18:41.437Z,4.00
2023-07-21T08:21:21.989Z,6.43
2023-07-21T08:23:52.878Z,3.60
2023-07-21T08:26:20.056Z,3.50
2023-07-21T08:28:47.072Z,3.78
2023-07-21T08:31:13.993Z,4.45
2023-07-21T08:33:41.418Z,4.50
2023-07-21T08:36:08.307Z,3.75
2023-07-21T08:38:35.164Z,4.75
2023-07-21T08:41:08.530Z,3.50
2023-07-21T08:43:35.983Z,3.80
2023-07-21T08:46:07.122Z,3.28
2023-07-21T08:48:35.425Z,3.42
2023-07-21T08:51:03.448Z,3.53
2023-07-21T08:53:30.301Z,4.15
2023-07-21T08:55:58.779Z,3.67
2023-07-21T08:58:27.776Z,3.35
2023-07-21T09:00:56.139Z,3.90
2023-07-21T09:03:31.175Z,4.38
2023-07-21T09:06:00.042Z,3.80
2023-07-21T09:08:33.107Z,4.57
2023-07-21T09:11:04.444Z,4.05
2023-07-21T09:13:32.702Z,4.38
2023-07-21T09:16:00.794Z,4.18
2023-07-21T09:18:43.294Z,3.83
2023-07-21T09:23:45.414Z,3.53
2023-07-21T09:26:12.278Z,4.68
2023-07-21T09:28:41.793Z,3.60
2023-07-21T09:31:12.745Z,3.90
2023-07-21T09:33:45.081Z,3.05
2023-07-21T09:36:17.200Z,2.72
2023-07-21T09:38:45.366Z,3.05
2023-07-21T09:41:14.650Z,2.80
2023-07-21T09:43:42.807Z,3.38
2023-07-21T09:46:17.793Z,3.10
2023-07-21T09:48:46.553Z,3.30
2023-07-21T09:51:13.832Z,6.47
2023-07-21T09:53:44.709Z,3.83
2023-07-21T09:56:16.496Z,3.70
2023-07-21T09:58:51.525Z,3.55
2023-07-21T10:01:19.965Z,3.50
2023-07-21T10:03:47.176Z,2.60
2023-07-21T10:06:16.417Z,3.45
2023-07-21T10:08:44.192Z,2.63
2023-07-21T10:11:11.185Z,3.08
2023-07-21T10:13:46.323Z,3.08
2023-07-21T10:16:13.745Z,3.10
2023-07-21T10:19:13.300Z,3.90
2023-07-21T10:21:54.912Z,2.47
2023-07-21T10:24:29.799Z,3.28
2023-07-21T10:27:01.579Z,2.70
2023-07-21T10:29:28.473Z,2.13
2023-07-21T10:31:57.721Z,2.97
2023-07-21T10:34:26.775Z,3.40
2023-07-21T10:36:53.901Z,3.35
2023-07-21T10:39:25.495Z,2.90
2023-07-21T10:41:55.206Z,3.00
2023-07-21T10:44:23.051Z,3.15
2023-07-21T10:46:52.234Z,3.15
2023-07-21T10:49:20.253Z,2.80
2023-07-21T10:51:49.430Z,2.78
2023-07-21T10:54:17.657Z,3.00
2023-07-21T10:56:47.551Z,4.05
2023-07-21T10:59:15.622Z,3.95
2023-07-21T11:01:48.043Z,2.80
2023-07-21T11:04:17.906Z,4.45
2023-07-21T11:09:14.037Z,2.70
2023-07-21T11:11:44.372Z,3.00
2023-07-21T11:14:12.761Z,3.92
2023-07-21T11:16:49.086Z,3.83
2023-07-21T11:19:17.192Z,4.38
2023-07-21T11:21:44.095Z,3.65
2023-07-21T11:24:11.296Z,3.05
2023-07-21T11:26:40.232Z,2.40
2023-07-21T11:29:08.445Z,2.92
2023-07-21T11:31:38.872Z,2.50
2023-07-21T11:34:21.653Z,3.33
2023-07-21T11:36:50.365Z,3.55
2023-07-21T11:39:23.642Z,3.65
2023-07-21T11:41:52.930Z,3.33
2023-07-21T11:44:31.391Z,2.75
2023-07-21T11:47:06.477Z,3.20
2023-07-21T11:49:39.486Z,2.72
2023-07-21T11:52:07.335Z,3.40
2023-07-21T11:54:39.189Z,3.30
2023-07-21T11:57:06.194Z,2.83
2023-07-21T11:59:33.339Z,2.92
2023-07-21T12:02:00.394Z,3.15
2023-07-21T12:04:29.074Z,2.95
2023-07-21T12:06:56.224Z,2.90
2023-07-21T12:09:23.436Z,2.95
2023-07-21T12:11:50.572Z,3.80
2023-07-21T12:14:17.489Z,2.58
2023-07-21T12:16:44.559Z,3.40
2023-07-21T12:19:11.377Z,3.45
2023-07-21T12:21:47.777Z,3.35
2023-07-21T12:24:15.142Z,3.63
2023-07-21T12:26:45.043Z,3.42
2023-07-21T12:31:38.790Z,3.08
2023-07-21T12:34:06.568Z,3.92
2023-07-21T12:36:33.687Z,4.70
2023-07-21T12:39:00.552Z,3.25
2023-07-21T12:41:27.770Z,3.00
2023-07-21T12:43:54.808Z,3.65
2023-07-21T12:46:21.775Z,3.10
2023-07-21T12:48:48.912Z,3.15
2023-07-21T12:51:15.773Z,3.95
2023-07-21T12:53:42.656Z,2.85
2023-07-21T12:56:09.917Z,3.00
2023-07-21T12:58:36.939Z,3.53
2023-07-21T13:01:03.952Z,3.30
2023-07-21T13:03:31.113Z,4.72
2023-07-21T13:05:58.223Z,3.05
2023-07-21T13:08:27.009Z,3.05
2023-07-21T13:10:56.075Z,3.40
2023-07-21T13:13:23.014Z,3.67
2023-07-21T13:15:52.798Z,3.30
2023-07-21T13:18:22.214Z,3.95
2023-07-21T13:20:49.431Z,3.28
2023-07-21T13:23:22.061Z,4.35
2023-07-21T13:25:53.145Z,4.75
2023-07-21T13:28:20.069Z,3.80
2023-07-21T13:30:47.900Z,3.55
2023-07-21T13:33:16.526Z,3.75
2023-07-21T13:35:43.346Z,3.35
2023-07-21T13:40:54.270Z,4.30
2023-07-21T13:43:21.615Z,4.07
2023-07-21T13:45:49.280Z,2.78
2023-07-21T13:48:16.266Z,3.00
2023-07-21T13:50:43.231Z,2.72
2023-07-21T13:53:10.042Z,4.30
2023-07-21T13:55:37.147Z,3.15
2023-07-21T13:58:04.118Z,2.42
2023-07-21T14:00:31.441Z,3.47
2023-07-21T14:02:58.476Z,2.80
2023-07-21T14:05:28.828Z,2.83
2023-07-21T14:07:56.524Z,3.67
2023-07-21T14:10:23.321Z,3.35
2023-07-21T14:12:50.146Z,2.78
2023-07-21T14:15:17.451Z,3.65
2023-07-21T14:17:44.391Z,4.30
2023-07-21T14:20:11.689Z,3.75
2023-07-21T14:22:39.326Z,2.80
2023-07-21T14:25:06.837Z,3.70
2023-07-21T14:27:33.711Z,2.80
2023-07-21T14:30:00.588Z,2.80
2023-07-21T14:32:28.169Z,3.90
2023-07-21T14:34:55.255Z,3.70
2023-07-21T14:37:22.205Z,3.25
2023-07-21T14:39:49.005Z,2.08
2023-07-21T14:42:16.092Z,2.50
2023-07-21T14:44:43.020Z,2.78
2023-07-21T14:47:10.336Z,3.05
2023-07-21T14:49:39.607Z,4.45
2023-07-21T14:52:07.336Z,3.97
2023-07-21T14:54:34.247Z,3.30
2023-07-21T14:57:01.064Z,2.63
2023-07-21T14:59:27.868Z,3.08
2023-07-21T15:01:54.711Z,3.03
2023-07-21T15:04:22.933Z,2.47
2023-07-21T15:06:49.734Z,2.95
2023-07-21T15:09:16.644Z,4.63
2023-07-21T15:11:46.535Z,3.67
2023-07-21T15:16:40.076Z,2.83
2023-07-21T15:19:06.902Z,3.10
2023-07-21T15:21:33.750Z,3.85
2023-07-21T15:24:00.679Z,3.08
2023-07-21T15:26:30.310Z,3.60
2023-07-21T15:28:57.264Z,3.15
2023-07-21T15:31:24.301Z,3.88
2023-07-21T15:33:51.374Z,3.42
2023-07-21T15:36:21.739Z,3.13
2023-07-21T15:38:49.745Z,3.42
2023-07-21T15:41:16.590Z,3.47
2023-07-21T15:43:43.601Z,2.47
2023-07-21T15:46:10.724Z,4.35
2023-07-21T15:48:37.675Z,3.65
2023-07-21T15:51:05.905Z,3.30
2023-07-21T15:53:32.820Z,2.60
2023-07-21T15:55:59.644Z,2.75
2023-07-21T15:58:26.520Z,2.63
2023-07-21T16:00:59.880Z,3.65
2023-07-21T16:03:27.393Z,2.92
2023-07-21T16:05:55.155Z,3.83
2023-07-21T16:08:26.597Z,4.90
2023-07-21T16:10:53.614Z,2.38
2023-07-21T16:13:21.675Z,3.53
2023-07-21T16:15:50.643Z,2.92
2023-07-21T16:18:17.529Z,3.00
2023-07-21T16:20:44.435Z,3.90
2023-07-21T16:23:12.170Z,2.95
2023-07-21T16:25:39.198Z,2.63
2023-07-21T16:28:06.427Z,3.53
2023-07-21T16:30:33.327Z,3.05
2023-07-21T16:33:00.212Z,3.08
2023-07-21T16:35:27.828Z,2.97
2023-07-21T16:37:57.709Z,3.38
2023-07-21T16:40:24.517Z,2.92
2023-07-21T16:42:51.344Z,3.05
2023-07-21T16:45:18.859Z,3.70
2023-07-21T16:47:45.818Z,2.65
2023-07-21T16:50:13.384Z,3.20
2023-07-21T16:52:40.900Z,3.03
2023-07-21T16:55:08.779Z,2.75
2023-07-21T16:57:35.609Z,3.05
2023-07-21T17:00:11.189Z,5.05
2023-07-21T17:02:38.735Z,5.22
2023-07-21T17:05:20.094Z,4.63
2023-07-21T17:07:51.921Z,3.80
2023-07-21T17:10:18.856Z,3.22
2023-07-21T17:12:45.890Z,5.25
2023-07-21T17:15:13.947Z,4.60
2023-07-21T17:17:40.886Z,5.90
2023-07-21T17:20:13.103Z,4.03
2023-07-21T17:22:45.288Z,4.85
2023-07-21T17:25:12.271Z,3.90
2023-07-21T17:27:39.326Z,4.28
2023-07-21T17:30:07.349Z,5.30
2023-07-21T17:32:34.308Z,3.55
2023-07-21T17:35:01.253Z,3.40
2023-07-21T17:37:28.504Z,4.07
2023-07-21T17:39:55.507Z,4.13
2023-07-21T17:42:22.575Z,3.20
2023-07-21T17:44:49.423Z,3.78
2023-07-21T17:47:16.332Z,3.03
2023-07-21T17:49:43.168Z,4.68
2023-07-21T17:52:10.120Z,3.30
2023-07-21T17:54:37.055Z,3.72
2023-07-21T17:57:05.300Z,3.47
2023-07-21T17:59:32.105Z,3.42
2023-07-21T18:01:59.145Z,2.97
2023-07-21T18:04:26.422Z,2.88
2023-07-21T18:06:53.337Z,2.72
2023-07-21T18:09:20.254Z,3.17
2023-07-21T18:11:47.143Z,3.08
2023-07-21T18:14:13.938Z,2.78
2023-07-21T18:16:40.945Z,3.00
2023-07-21T18:19:07.899Z,3.75
2023-07-21T18:21:36.285Z,3.00
2023-07-21T18:24:03.201Z,2.60
2023-07-21T18:26:30.037Z,3.50
2023-07-21T18:28:57.125Z,3.92
2023-07-21T18:31:24.350Z,3.20
2023-07-21T18:33:51.504Z,2.70
2023-07-21T18:36:19.058Z,3.03
2023-07-21T18:38:47.071Z,3.63
2023-07-21T18:41:15.099Z,3.38
2023-07-21T18:43:42.616Z,5.60
2023-07-21T18:46:09.867Z,3.75
2023-07-21T18:48:36.672Z,3.13
2023-07-21T18:51:03.629Z,3.53
2023-07-21T18:53:30.473Z,3.75
2023-07-21T18:55:57.355Z,3.50
2023-07-21T18:58:24.228Z,3.70
2023-07-21T19:00:51.605Z,2.53
2023-07-21T19:03:18.877Z,2.90
2023-07-21T19:05:50.640Z,3.03
2023-07-21T19:08:17.490Z,2.63
2023-07-21T19:10:44.358Z,3.20
2023-07-21T19:13:11.186Z,3.40
2023-07-21T19:15:39.126Z,3.33
2023-07-21T19:18:06.063Z,3.53
2023-07-21T19:20:32.942Z,3.60
2023-07-21T19:23:00.095Z,3.40
2023-07-21T19:25:26.950Z,2.63
2023-07-21T19:27:57.623Z,5.20
2023-07-21T19:30:24.492Z,3.72
2023-07-21T19:32:51.336Z,4.03
2023-07-21T19:35:18.314Z,3.22
2023-07-21T19:37:45.127Z,3.45
2023-07-21T19:40:12.183Z,3.88
2023-07-21T19:42:39.043Z,3.55
2023-07-21T19:45:07.806Z,3.53
2023-07-21T19:47:34.818Z,3.17
2023-07-21T19:50:01.878Z,3.35
2023-07-21T19:52:28.781Z,3.40
2023-07-21T19:54:55.581Z,4.97
2023-07-21T19:57:22.789Z,3.03
2023-07-21T19:59:49.863Z,3.50
2023-07-21T20:02:16.894Z,2.97
2023-07-21T20:04:44.385Z,3.83
2023-07-21T20:07:11.338Z,3.67
2023-07-21T20:09:39.003Z,4.65
2023-07-21T20:12:06.504Z,3.40
2023-07-21T20:14:33.777Z,3.50
2023-07-21T20:17:00.684Z,3.38
2023-07-21T20:19:28.577Z,2.97
2023-07-21T20:21:55.460Z,3.35
2023-07-21T20:24:22.334Z,3.95
2023-07-21T20:26:49.222Z,4.20
2023-07-21T20:29:16.099Z,3.25
2023-07-21T20:31:43.010Z,3.20
2023-07-21T20:34:09.855Z,3.80
2023-07-21T20:36:37.388Z,4.07
2023-07-21T20:39:04.325Z,3.75
2023-07-21T20:41:31.144Z,2.92
2023-07-21T20:43:57.972Z,3.58
2023-07-21T20:46:25.111Z,3.50
2023-07-21T20:48:52.303Z,4.15
2023-07-21T20:51:19.325Z,3.58
2023-07-21T20:53:46.742Z,4.07
2023-07-21T20:56:13.786Z,3.20
2023-07-21T20:58:40.986Z,3.88
2023-07-21T21:01:08.716Z,3.40
2023-07-21T21:03:35.707Z,3.80
2023-07-21T21:06:02.561Z,3.33
2023-07-21T21:08:29.442Z,4.45
2023-07-21T21:10:57.674Z,4.00
2023-07-21T21:13:24.787Z,4.93
2023-07-21T21:15:54.186Z,3.35
2023-07-21T21:18:21.181Z,3.58
2023-07-21T21:20:48.437Z,4.22
2023-07-21T21:23:15.237Z,3.90
2023-07-21T21:25:42.169Z,3.75
2023-07-21T21:28:09.136Z,3.78
2023-07-21T21:30:36.040Z,3.45
2023-07-21T21:33:03.312Z,3.92
2023-07-21T21:35:31.693Z,3.63
2023-07-21T21:37:58.647Z,3.88
2023-07-21T21:40:25.649Z,3.67
2023-07-21T21:42:53.216Z,3.40
2023-07-21T21:45:20.277Z,3.25
2023-07-21T21:47:47.275Z,4.75
2023-07-21T21:50:14.933Z,3.28
2023-07-21T21:52:41.815Z,4.35
2023-07-21T21:55:09.170Z,3.58
2023-07-21T21:57:36.002Z,3.15
2023-07-21T22:00:03.425Z,3.35
2023-07-21T22:02:34.499Z,4.47
2023-07-21T22:05:01.491Z,3.53
2023-07-21T22:07:28.291Z,3.20
2023-07-21T22:09:55.257Z,3.63
2023-07-21T22:12:22.163Z,3.13
2023-07-21T22:14:56.710Z,3.15
2023-07-21T22:17:24.613Z,4.13
2023-07-21T22:20:08.655Z,3.17
2023-07-21T22:22:39.995Z,4.22
2023-07-21T22:25:07.459Z,3.45
2023-07-21T22:27:34.595Z,3.53
2023-07-21T22:30:01.614Z,3.97
2023-07-21T22:32:29.110Z,3.38
2023-07-21T22:34:56.075Z,4.18
2023-07-21T22:37:22.925Z,3.60
2023-07-21T22:39:49.730Z,4.85
2023-07-21T22:42:16.742Z,3.88
2023-07-21T22:44:43.543Z,3.78
2023-07-21T22:47:12.154Z,4.05
2023-07-21T22:49:39.237Z,3.80
2023-07-21T22:52:06.752Z,5.07
2023-07-21T22:54:33.683Z,4.43
2023-07-21T22:57:00.607Z,4.55
2023-07-21T22:59:27.438Z,4.78
2023-07-21T23:01:54.815Z,3.78
2023-07-21T23:04:23.552Z,4.18
2023-07-21T23:06:50.479Z,3.90
2023-07-21T23:09:17.478Z,3.97
2023-07-21T23:11:44.916Z,4.03
2023-07-21T23:14:11.959Z,3.72
2023-07-21T23:16:39.004Z,3.85
2023-07-21T23:19:07.072Z,4.25
2023-07-21T23:21:33.924Z,3.97
2023-07-21T23:24:08.015Z,4.07
2023-07-21T23:26:35.010Z,3.72
2023-07-21T23:29:04.125Z,4.53
2023-07-21T23:31:32.541Z,3.92
2023-07-21T23:34:00.225Z,4.15
2023-07-21T23:36:28.279Z,4.82
2023-07-21T23:38:56.055Z,4.63
2023-07-21T23:41:23.000Z,4.57
2023-07-21T23:43:49.888Z,4.53
2023-07-21T23:46:17.447Z,4.00
2023-07-21T23:48:44.296Z,6.00
2023-07-21T23:51:11.116Z,3.97
2023-07-21T23:53:38.033Z,4.65
2023-07-21T23:56:05.710Z,4.63
2023-07-21T23:58:32.561Z,4.82
